KGIF

Details ICAO KGIF (GIF)
Name Winter Havens Gilbert
Region United States
Timezone America/New_York (UTC-4.0)
Plans Departing 13
Arriving 7
Stats Elevation 145 ft / 44 m (AMSL)
Location 28.062862° -81.753430°
Runways 2
Magnetic Variation 6.107° W
Sunrise 2018-05-22 10:35:14 UTC / 2018-05-22 06:35:14 Local
Sunset 2018-05-23 00:15:01 UTC / 2018-05-22 20:15:01 Local
Advertisement - Login to hide

Runways

ID Width Length Bearing (true) Bearing (mag) Surface Threshold Offset Overrun Length
04 100 ft / 30 m 5,011 ft / 1,527 m 44.85° 50.96° Asphalt 0 ft / 0 m 0 ft / 0 m
11 100 ft / 30 m 3,996 ft / 1,218 m 103.22° 109.33° Asphalt 0 ft / 0 m 0 ft / 0 m
22 100 ft / 30 m 5,011 ft / 1,527 m 224.85° 230.96° Asphalt 0 ft / 0 m 0 ft / 0 m
29 100 ft / 30 m 3,996 ft / 1,218 m 283.23° 289.34° Asphalt 0 ft / 0 m 0 ft / 0 m

Map

Weather


0- 5 10 15 20 25 30 35+ Temperature / ° C

Clouds and Precipitation
Forecast for 2018-05-22 12:00 UTC. Updated an hour ago

Ground ~20,000 ft ~40,000 ft Winds

METAR

KGIF 220953Z AUTO 10007KT 10SM CLR 23/22 A3005 RMK AO2 SLP174 T02280222

TAF

Not found

Frequencies

Recorded 133.67 MHz ASOS
Approach 120.65 MHz TAMPA APP/DEP
Unicom 123.05 MHz CTAF/UNICOM
Approach 119.90 MHz TAMPA APP/DEP
Warning: Do not use this data for real-world aviation or navigation. No guarantee of current accuracy is given.